createdAt,value
2022-09-07T00:01:07.522Z,43.23
2022-09-07T00:03:34.663Z,43.21
2022-09-07T00:06:05.933Z,43.10
2022-09-07T00:08:32.838Z,43.11
2022-09-07T00:11:02.399Z,43.22
2022-09-07T00:13:31.299Z,43.19
2022-09-07T00:15:58.339Z,43.44
2022-09-07T00:18:25.376Z,43.50
2022-09-07T00:21:02.243Z,43.48
2022-09-07T00:23:29.859Z,43.41
2022-09-07T00:26:01.284Z,43.53
2022-09-07T00:28:28.711Z,43.56
2022-09-07T00:30:55.667Z,43.58
2022-09-07T00:33:22.720Z,43.71
2022-09-07T00:35:49.633Z,43.52
2022-09-07T00:38:16.563Z,43.69
2022-09-07T00:40:43.457Z,43.74
2022-09-07T00:43:15.888Z,43.53
2022-09-07T00:45:43.112Z,43.66
2022-09-07T00:48:17.157Z,43.69
2022-09-07T00:50:59.668Z,43.60
2022-09-07T00:53:30.763Z,43.99
2022-09-07T00:55:57.838Z,43.94
2022-09-07T00:58:24.729Z,43.98
2022-09-07T01:00:51.833Z,43.86
2022-09-07T01:03:25.816Z,44.08
2022-09-07T01:06:01.401Z,43.82
2022-09-07T01:08:28.318Z,43.89
2022-09-07T01:10:55.705Z,43.96
2022-09-07T01:13:23.126Z,43.98
2022-09-07T01:16:09.278Z,43.97
2022-09-07T01:19:18.131Z,43.83
2022-09-07T01:22:06.376Z,44.22
2022-09-07T01:24:53.031Z,44.10
2022-09-07T01:27:38.083Z,43.98
2022-09-07T01:30:10.806Z,44.24
2022-09-07T01:32:57.039Z,44.23
2022-09-07T01:35:50.780Z,44.25
2022-09-07T01:38:37.604Z,44.29
2022-09-07T01:41:13.546Z,44.25
2022-09-07T01:43:57.072Z,44.44
2022-09-07T01:46:42.920Z,44.29
2022-09-07T01:49:47.157Z,44.53
2022-09-07T01:52:17.166Z,44.37
2022-09-07T01:54:55.192Z,44.45
2022-09-07T01:57:26.954Z,44.61
2022-09-07T01:59:58.714Z,44.55
2022-09-07T02:02:29.742Z,44.48
2022-09-07T02:05:35.032Z,44.26
2022-09-07T02:08:13.684Z,44.47
2022-09-07T02:10:44.904Z,44.45
2022-09-07T02:13:31.660Z,44.37
2022-09-07T02:16:07.498Z,44.48
2022-09-07T02:18:41.038Z,44.37
2022-09-07T02:21:08.248Z,44.49
2022-09-07T02:23:46.878Z,44.44
2022-09-07T02:26:16.604Z,44.62
2022-09-07T02:28:43.585Z,44.63
2022-09-07T02:31:10.514Z,44.79
2022-09-07T02:33:37.474Z,44.78
2022-09-07T02:36:04.552Z,44.61
2022-09-07T02:38:33.092Z,44.73
2022-09-07T02:41:00.806Z,44.74
2022-09-07T02:43:27.745Z,44.71
2022-09-07T02:46:09.868Z,44.74
2022-09-07T02:48:51.945Z,44.64
2022-09-07T02:51:54.205Z,44.45
2022-09-07T02:54:48.305Z,44.67
2022-09-07T02:57:18.320Z,44.61
2022-09-07T03:00:02.506Z,44.68
2022-09-07T03:02:34.214Z,44.60
2022-09-07T03:05:01.071Z,44.64
2022-09-07T03:07:43.979Z,44.76
2022-09-07T03:10:11.326Z,44.54
2022-09-07T03:12:48.978Z,44.56
2022-09-07T03:15:21.384Z,44.72
2022-09-07T03:17:48.578Z,44.56
2022-09-07T03:20:17.103Z,44.59
2022-09-07T03:22:44.988Z,44.63
2022-09-07T03:25:11.923Z,44.69
2022-09-07T03:27:38.846Z,44.80
2022-09-07T03:30:06.886Z,44.78
2022-09-07T03:32:35.146Z,44.78
2022-09-07T03:35:02.161Z,44.63
2022-09-07T03:37:29.138Z,44.71
2022-09-07T03:39:56.132Z,44.51
2022-09-07T03:42:23.158Z,44.48
2022-09-07T03:44:50.264Z,44.57
2022-09-07T03:47:17.548Z,44.63
2022-09-07T03:49:44.776Z,44.61
2022-09-07T03:52:11.658Z,44.58
2022-09-07T03:54:39.742Z,44.28
2022-09-07T03:57:06.970Z,45.03
2022-09-07T03:59:34.043Z,45.50
2022-09-07T04:02:01.763Z,45.71
2022-09-07T04:04:29.170Z,46.17
2022-09-07T04:06:56.291Z,46.59
2022-09-07T04:09:23.523Z,45.67
2022-09-07T04:11:52.261Z,45.49
2022-09-07T04:14:19.324Z,45.51
2022-09-07T04:16:46.687Z,45.07
2022-09-07T04:19:15.300Z,44.92
2022-09-07T04:21:44.380Z,44.87
2022-09-07T04:24:11.339Z,44.54
2022-09-07T04:26:38.457Z,44.50
2022-09-07T04:29:06.969Z,44.14
2022-09-07T04:31:34.726Z,44.15
2022-09-07T04:34:01.874Z,43.76
2022-09-07T04:36:28.995Z,43.76
2022-09-07T04:39:00.171Z,43.71
2022-09-07T04:41:28.656Z,43.41
2022-09-07T04:43:59.915Z,43.39
2022-09-07T04:46:28.801Z,43.36
2022-09-07T04:48:59.444Z,43.41
2022-09-07T04:51:28.469Z,42.79
2022-09-07T04:53:56.431Z,42.04
2022-09-07T04:56:23.657Z,41.34
2022-09-07T04:58:50.851Z,41.01
2022-09-07T05:01:20.724Z,41.54
2022-09-07T05:03:48.273Z,41.87
2022-09-07T05:06:15.529Z,42.43
2022-09-07T05:08:49.924Z,43.07
2022-09-07T05:11:16.946Z,43.01
2022-09-07T05:13:43.846Z,43.08
2022-09-07T05:16:29.382Z,43.40
2022-09-07T05:19:01.225Z,43.67
2022-09-07T05:21:30.074Z,43.78
2022-09-07T05:23:57.761Z,44.30
2022-09-07T05:26:27.357Z,44.61
2022-09-07T05:31:41.830Z,43.54
2022-09-07T05:36:56.688Z,44.70
2022-09-07T05:39:23.834Z,45.01
2022-09-07T05:41:50.897Z,44.96
2022-09-07T05:47:04.896Z,44.47
2022-09-07T05:49:32.542Z,44.43
2022-09-07T05:51:59.779Z,44.34
2022-09-07T05:54:26.964Z,44.38
2022-09-07T05:56:53.983Z,44.47
2022-09-07T05:59:20.979Z,44.52
2022-09-07T06:01:48.051Z,44.71
2022-09-07T06:04:15.267Z,44.93
2022-09-07T06:06:47.814Z,45.21
2022-09-07T06:09:30.341Z,45.75
2022-09-07T06:11:57.941Z,46.13
2022-09-07T06:14:25.138Z,46.49
2022-09-07T06:16:52.218Z,46.82
2022-09-07T06:19:19.271Z,47.16
2022-09-07T06:21:46.294Z,47.56
2022-09-07T06:24:13.405Z,47.49
2022-09-07T06:26:40.495Z,47.64
2022-09-07T06:29:08.727Z,47.25
2022-09-07T06:31:35.922Z,47.23
2022-09-07T06:34:02.921Z,47.41
2022-09-07T06:36:29.958Z,47.52
2022-09-07T06:39:01.931Z,47.78
2022-09-07T06:44:20.930Z,47.15
2022-09-07T06:47:03.856Z,47.42
2022-09-07T06:49:31.412Z,47.47
2022-09-07T06:51:58.436Z,47.29
2022-09-07T06:57:12.594Z,47.30
2022-09-07T06:59:39.624Z,47.15
2022-09-07T07:02:06.704Z,46.98
2022-09-07T07:04:39.616Z,46.98
2022-09-07T07:07:10.894Z,46.81
2022-09-07T07:09:38.531Z,46.66
2022-09-07T07:12:05.507Z,46.63
2022-09-07T07:14:34.651Z,46.39
2022-09-07T07:17:02.665Z,46.45
2022-09-07T07:19:29.705Z,46.40
2022-09-07T07:24:43.951Z,46.54
2022-09-07T07:27:10.935Z,46.29
2022-09-07T07:29:37.919Z,46.24
2022-09-07T07:32:05.378Z,46.21
2022-09-07T07:34:32.438Z,46.46
2022-09-07T07:36:59.395Z,46.96
2022-09-07T07:42:13.369Z,46.89
2022-09-07T07:44:40.300Z,47.23
2022-09-07T07:47:07.238Z,46.91
2022-09-07T07:49:34.150Z,46.65
2022-09-07T07:54:48.280Z,46.57
2022-09-07T07:57:16.994Z,46.40
2022-09-07T07:59:43.987Z,46.45
2022-09-07T08:02:15.122Z,46.34
2022-09-07T08:04:42.290Z,46.54
2022-09-07T08:07:11.008Z,46.12
2022-09-07T08:09:44.665Z,46.27
2022-09-07T08:12:13.209Z,46.56
2022-09-07T08:14:43.156Z,47.05
2022-09-07T08:17:11.047Z,46.98
2022-09-07T08:19:38.256Z,47.12
2022-09-07T08:22:05.313Z,46.87
2022-09-07T08:24:32.424Z,46.43
2022-09-07T08:26:59.474Z,46.31
2022-09-07T08:29:27.254Z,46.15
2022-09-07T08:31:54.571Z,46.04
2022-09-07T08:34:22.099Z,45.77
2022-09-07T08:36:49.044Z,45.75
2022-09-07T08:39:16.204Z,45.41
2022-09-07T08:42:07.806Z,45.05
2022-09-07T08:44:45.816Z,44.85
2022-09-07T08:47:36.543Z,44.97
2022-09-07T08:50:20.513Z,44.25
2022-09-07T08:52:54.779Z,44.38
2022-09-07T08:55:21.798Z,44.55
2022-09-07T08:57:58.060Z,44.12
2022-09-07T09:00:25.756Z,43.90
2022-09-07T09:05:55.724Z,44.21
2022-09-07T09:08:41.230Z,44.55
2022-09-07T09:11:20.608Z,44.32
2022-09-07T09:14:15.909Z,44.66
2022-09-07T09:17:12.140Z,44.45
2022-09-07T09:20:00.540Z,44.64
2022-09-07T09:22:28.657Z,44.51
2022-09-07T09:25:20.198Z,44.52
2022-09-07T09:27:50.822Z,44.46
2022-09-07T09:30:19.728Z,44.26
2022-09-07T09:32:48.549Z,44.86
2022-09-07T09:35:37.139Z,44.75
2022-09-07T09:38:04.190Z,44.16
2022-09-07T09:40:34.466Z,44.10
2022-09-07T09:43:34.138Z,43.94
2022-09-07T09:46:17.209Z,43.75
2022-09-07T09:48:50.158Z,43.34
2022-09-07T09:54:18.516Z,44.25
2022-09-07T09:56:46.354Z,44.28
2022-09-07T10:05:28.306Z,44.22
2022-09-07T10:07:55.391Z,44.03
2022-09-07T10:10:22.358Z,43.52
2022-09-07T10:12:52.589Z,42.61
2022-09-07T10:15:41.390Z,41.87
2022-09-07T10:18:18.921Z,42.26
2022-09-07T10:20:45.909Z,42.39
2022-09-07T10:23:20.936Z,42.05
2022-09-07T10:25:48.042Z,41.71
2022-09-07T10:28:20.550Z,41.92
2022-09-07T10:31:15.760Z,42.03
2022-09-07T10:37:06.974Z,42.37
2022-09-07T10:39:37.856Z,40.26
2022-09-07T10:42:26.673Z,39.09
2022-09-07T10:45:05.614Z,39.83
2022-09-07T10:47:50.795Z,40.03
2022-09-07T10:50:39.988Z,39.80
2022-09-07T10:53:40.145Z,39.29
2022-09-07T10:56:24.744Z,39.60
2022-09-07T10:59:05.019Z,38.83
2022-09-07T11:01:42.445Z,38.84
2022-09-07T11:04:17.639Z,38.48
2022-09-07T11:06:48.386Z,38.15
2022-09-07T11:09:36.765Z,38.21
2022-09-07T11:12:14.765Z,37.86
2022-09-07T11:14:48.290Z,38.19
2022-09-07T11:17:20.998Z,38.56
2022-09-07T11:19:52.788Z,38.37
2022-09-07T11:22:35.718Z,38.33
2022-09-07T11:28:01.086Z,38.17
2022-09-07T11:30:31.403Z,38.59
2022-09-07T11:33:00.098Z,38.40
2022-09-07T11:35:51.779Z,37.98
2022-09-07T11:38:47.634Z,38.30
2022-09-07T11:41:36.840Z,38.34
2022-09-07T11:44:13.565Z,37.86
2022-09-07T11:46:44.509Z,37.95
2022-09-07T11:49:22.915Z,37.57
2022-09-07T11:52:06.919Z,37.67
2022-09-07T11:55:01.475Z,38.05
2022-09-07T11:57:31.422Z,37.93
2022-09-07T12:00:20.804Z,37.74
2022-09-07T12:02:59.912Z,37.90
2022-09-07T12:05:33.323Z,37.33
2022-09-07T12:08:05.961Z,37.36
2022-09-07T12:10:54.164Z,37.38
2022-09-07T12:13:39.347Z,37.29
2022-09-07T12:16:18.535Z,37.20
2022-09-07T12:19:19.807Z,37.20
2022-09-07T12:21:52.876Z,37.42
2022-09-07T12:24:34.788Z,37.19
2022-09-07T12:27:03.077Z,36.80
2022-09-07T12:29:30.190Z,36.98
2022-09-07T12:32:00.685Z,36.88
2022-09-07T12:34:35.471Z,36.58
2022-09-07T12:37:27.164Z,37.08
2022-09-07T12:40:39.241Z,36.98
2022-09-07T12:43:15.179Z,36.98
2022-09-07T12:45:44.957Z,36.73
2022-09-07T12:48:17.835Z,37.17
2022-09-07T12:51:07.738Z,36.85
2022-09-07T12:54:02.451Z,37.01
2022-09-07T12:59:46.944Z,36.90
2022-09-07T13:02:44.108Z,36.94
2022-09-07T13:05:39.042Z,36.78
2022-09-07T13:08:20.957Z,36.55
2022-09-07T13:10:48.019Z,36.40
2022-09-07T13:13:14.929Z,36.64
2022-09-07T13:15:45.246Z,36.38
2022-09-07T13:18:35.268Z,36.68
2022-09-07T13:21:08.045Z,37.60
2022-09-07T13:23:43.098Z,36.06
2022-09-07T13:26:11.934Z,34.90
2022-09-07T13:28:56.207Z,32.72
2022-09-07T13:31:25.025Z,34.19
2022-09-07T13:33:53.700Z,34.78
2022-09-07T13:36:39.097Z,34.99
2022-09-07T13:39:13.070Z,34.83
2022-09-07T13:41:51.319Z,35.32
2022-09-07T13:44:25.888Z,35.14
2022-09-07T13:47:21.152Z,35.13
2022-09-07T13:50:26.836Z,35.01
2022-09-07T13:53:05.891Z,35.22
2022-09-07T13:55:46.402Z,35.29
2022-09-07T13:58:22.244Z,34.76
2022-09-07T14:00:53.457Z,35.40
2022-09-07T14:03:20.458Z,35.25
2022-09-07T14:05:47.518Z,35.26
2022-09-07T14:08:27.586Z,35.45
2022-09-07T14:10:54.452Z,35.34
2022-09-07T14:13:21.333Z,35.16
2022-09-07T14:15:49.215Z,35.28
2022-09-07T14:18:27.383Z,35.27
2022-09-07T14:20:54.293Z,35.30
2022-09-07T14:23:21.105Z,35.28
2022-09-07T14:28:38.275Z,35.24
2022-09-07T14:31:06.070Z,35.47
2022-09-07T14:33:33.078Z,35.54
2022-09-07T14:36:00.115Z,35.43
2022-09-07T14:41:20.529Z,35.40
2022-09-07T14:43:54.985Z,35.50
2022-09-07T14:46:25.325Z,35.52
2022-09-07T14:48:55.254Z,35.64
2022-09-07T14:51:35.173Z,35.45
2022-09-07T14:54:04.531Z,35.55
2022-09-07T14:56:39.235Z,35.62
2022-09-07T14:59:33.114Z,35.37
2022-09-07T15:02:18.492Z,35.55
2022-09-07T15:04:46.258Z,35.69
2022-09-07T15:07:37.888Z,35.58
2022-09-07T15:10:23.549Z,35.60
2022-09-07T15:12:55.156Z,35.66
2022-09-07T15:15:27.335Z,35.47
2022-09-07T15:17:55.672Z,35.60
2022-09-07T15:20:35.458Z,35.58
2022-09-07T15:23:08.494Z,35.25
2022-09-07T15:25:35.454Z,35.21
2022-09-07T15:28:02.544Z,35.13
2022-09-07T15:30:29.439Z,35.19
2022-09-07T15:32:57.382Z,35.21
2022-09-07T15:35:24.745Z,35.14
2022-09-07T15:38:59.375Z,35.01
2022-09-07T15:41:20.583Z,35.04
2022-09-07T15:43:41.269Z,35.05
2022-09-07T15:46:08.937Z,35.07
2022-09-07T15:48:36.328Z,35.11
2022-09-07T15:52:04.772Z,35.00
2022-09-07T15:56:42.333Z,34.93
2022-09-07T15:59:09.618Z,35.00
2022-09-07T16:01:52.506Z,35.12
2022-09-07T16:04:20.582Z,34.96
2022-09-07T16:06:48.360Z,35.00
2022-09-07T16:09:15.554Z,34.78
2022-09-07T16:11:42.476Z,34.72
2022-09-07T16:14:12.374Z,34.73
2022-09-07T16:19:26.117Z,34.74
2022-09-07T16:21:57.164Z,34.73
2022-09-07T16:24:24.559Z,34.64
2022-09-07T16:26:51.496Z,34.77
2022-09-07T16:29:18.320Z,34.88
2022-09-07T16:34:32.131Z,35.23
2022-09-07T16:36:58.941Z,35.23
2022-09-07T16:39:25.974Z,35.06
2022-09-07T16:41:52.987Z,35.64
2022-09-07T16:44:19.839Z,35.46
2022-09-07T16:46:46.669Z,35.59
2022-09-07T16:49:13.536Z,35.36
2022-09-07T16:51:40.363Z,35.52
2022-09-07T16:54:07.234Z,35.73
2022-09-07T16:56:38.805Z,35.72
2022-09-07T16:59:06.311Z,35.86
2022-09-07T17:01:34.898Z,35.88
2022-09-07T17:04:04.502Z,36.21
2022-09-07T17:06:35.098Z,36.00
2022-09-07T17:09:02.127Z,36.02
2022-09-07T17:11:33.157Z,36.02
2022-09-07T17:14:00.619Z,36.04
2022-09-07T17:16:29.734Z,36.11
2022-09-07T17:21:46.203Z,36.47
2022-09-07T17:24:13.281Z,36.50
2022-09-07T17:26:42.189Z,36.43
2022-09-07T17:29:09.739Z,36.26
2022-09-07T17:34:24.138Z,36.81
2022-09-07T17:36:51.556Z,36.66
2022-09-07T17:39:19.518Z,36.84
2022-09-07T17:41:53.099Z,36.67
2022-09-07T17:44:21.482Z,37.13
2022-09-07T17:46:48.343Z,37.15
2022-09-07T17:49:16.793Z,36.78
2022-09-07T17:51:44.355Z,36.80
2022-09-07T17:54:13.071Z,37.27
2022-09-07T17:56:40.547Z,37.31
2022-09-07T18:01:54.922Z,37.02
2022-09-07T18:04:22.732Z,37.42
2022-09-07T18:06:49.724Z,37.11
2022-09-07T18:09:19.725Z,37.19
2022-09-07T18:11:48.759Z,37.72
2022-09-07T18:14:16.572Z,37.55
2022-09-07T18:16:44.069Z,37.83
2022-09-07T18:19:11.344Z,37.60
2022-09-07T18:21:39.330Z,37.65
2022-09-07T18:24:11.770Z,37.58
2022-09-07T18:26:40.116Z,37.79
2022-09-07T18:29:18.965Z,37.81
2022-09-07T18:31:54.220Z,37.73
2022-09-07T18:34:21.161Z,37.75
2022-09-07T18:36:48.186Z,38.04
2022-09-07T18:39:15.206Z,38.38
2022-09-07T18:41:42.312Z,37.92
2022-09-07T18:46:56.275Z,38.33
2022-09-07T18:49:23.574Z,38.46
2022-09-07T18:54:38.720Z,38.57
2022-09-07T18:57:06.918Z,38.78
2022-09-07T18:59:34.104Z,38.85
2022-09-07T19:02:04.511Z,38.80
2022-09-07T19:07:27.385Z,38.84
2022-09-07T19:09:56.554Z,39.04
2022-09-07T19:12:24.286Z,38.84
2022-09-07T19:14:51.348Z,39.26
2022-09-07T19:17:18.250Z,39.01
2022-09-07T19:19:45.123Z,39.29
2022-09-07T19:22:12.168Z,39.43
2022-09-07T19:24:39.025Z,39.15
2022-09-07T19:27:07.278Z,39.23
2022-09-07T19:29:34.170Z,39.05
2022-09-07T19:32:07.801Z,39.41
2022-09-07T19:34:36.535Z,39.52
2022-09-07T19:37:04.118Z,39.84
2022-09-07T19:39:31.944Z,39.98
2022-09-07T19:41:59.002Z,39.79
2022-09-07T19:44:25.903Z,39.57
2022-09-07T19:46:52.844Z,39.86
2022-09-07T19:49:19.825Z,39.73
2022-09-07T19:51:49.366Z,40.21
2022-09-07T19:54:16.240Z,39.95
2022-09-07T19:56:43.377Z,39.68
2022-09-07T19:59:10.484Z,40.09
2022-09-07T20:01:38.589Z,39.98
2022-09-07T20:04:07.315Z,40.49
2022-09-07T20:06:34.593Z,40.07
2022-09-07T20:09:01.451Z,40.55
2022-09-07T20:11:31.222Z,40.48
2022-09-07T20:13:58.117Z,40.37
2022-09-07T20:16:25.289Z,40.70
2022-09-07T20:18:52.316Z,40.44
2022-09-07T20:21:21.146Z,40.73
2022-09-07T20:23:48.064Z,41.00
2022-09-07T20:26:16.601Z,40.91
2022-09-07T20:28:43.534Z,40.81
2022-09-07T20:31:12.050Z,40.76
2022-09-07T20:33:39.308Z,40.83
2022-09-07T20:36:07.426Z,41.35
2022-09-07T20:38:44.034Z,41.40
2022-09-07T20:41:16.805Z,41.36
2022-09-07T20:43:43.636Z,41.35
2022-09-07T20:46:10.507Z,41.47
2022-09-07T20:48:37.834Z,41.52
2022-09-07T20:51:06.609Z,41.65
2022-09-07T20:53:33.598Z,41.87
2022-09-07T20:56:02.099Z,41.81
2022-09-07T20:58:29.584Z,41.57
2022-09-07T21:00:56.516Z,41.67
2022-09-07T21:03:23.454Z,42.01
2022-09-07T21:05:50.351Z,41.64
2022-09-07T21:08:17.343Z,42.07
2022-09-07T21:10:45.425Z,42.01
2022-09-07T21:13:12.481Z,42.24
2022-09-07T21:15:40.409Z,41.90
2022-09-07T21:18:08.587Z,42.39
2022-09-07T21:20:35.434Z,41.97
2022-09-07T21:23:02.278Z,42.32
2022-09-07T21:25:29.088Z,42.07
2022-09-07T21:27:56.977Z,42.35
2022-09-07T21:30:23.815Z,42.34
2022-09-07T21:32:51.477Z,42.81
2022-09-07T21:35:19.066Z,42.34
2022-09-07T21:37:46.038Z,42.46
2022-09-07T21:40:13.006Z,42.92
2022-09-07T21:42:39.982Z,42.55
2022-09-07T21:45:07.765Z,43.03
2022-09-07T21:47:34.612Z,42.93
2022-09-07T21:50:01.469Z,42.82
2022-09-07T21:52:28.330Z,42.81
2022-09-07T21:54:55.422Z,43.14
2022-09-07T21:57:23.013Z,43.14
2022-09-07T21:59:49.858Z,43.17
2022-09-07T22:02:16.791Z,43.05
2022-09-07T22:04:43.677Z,43.30
2022-09-07T22:07:10.564Z,42.93
2022-09-07T22:09:37.378Z,43.39
2022-09-07T22:12:04.374Z,43.21
2022-09-07T22:14:31.443Z,43.66
2022-09-07T22:16:58.282Z,43.30
2022-09-07T22:19:25.136Z,43.40
2022-09-07T22:21:52.003Z,43.56
2022-09-07T22:24:18.812Z,43.77
2022-09-07T22:26:46.420Z,43.84
2022-09-07T22:29:13.427Z,43.80
2022-09-07T22:31:41.039Z,44.13
2022-09-07T22:34:08.567Z,43.81
2022-09-07T22:36:37.456Z,44.18
2022-09-07T22:39:05.751Z,43.92
2022-09-07T22:41:33.897Z,44.12
2022-09-07T22:44:00.962Z,44.19
2022-09-07T22:46:28.974Z,44.17
2022-09-07T22:48:56.990Z,43.90
2022-09-07T22:51:26.175Z,44.22
2022-09-07T22:53:53.216Z,44.19
2022-09-07T22:56:23.099Z,44.35
2022-09-07T22:58:51.787Z,43.92
2022-09-07T23:01:18.759Z,44.42
2022-09-07T23:03:45.800Z,44.18
2022-09-07T23:06:29.509Z,44.21
2022-09-07T23:08:57.166Z,44.44
2022-09-07T23:11:24.645Z,44.45
2022-09-07T23:13:55.560Z,44.32
2022-09-07T23:16:22.660Z,44.48
2022-09-07T23:18:49.603Z,44.48
2022-09-07T23:21:16.468Z,44.81
2022-09-07T23:23:43.426Z,44.78
2022-09-07T23:26:10.310Z,44.97
2022-09-07T23:28:37.129Z,44.91
2022-09-07T23:31:04.100Z,44.98
2022-09-07T23:33:31.165Z,45.07
2022-09-07T23:36:05.078Z,45.02
2022-09-07T23:38:32.458Z,44.88
2022-09-07T23:40:59.539Z,44.95
2022-09-07T23:43:30.181Z,44.96
2022-09-07T23:45:57.742Z,44.96
2022-09-07T23:48:24.624Z,45.08
2022-09-07T23:50:51.514Z,45.40
2022-09-07T23:53:18.611Z,44.94
2022-09-07T23:55:46.610Z,45.14
2022-09-07T23:58:13.504Z,45.46
